Meteo Giornale » Osservazioni meteo Romania » Sibiu

ore: 22:00 - Osservazioni Meteo Sibiu
Lat. 45° 48' N Lon. 24° 9' E Alt. 443 metri s.l.m.

sereno

20 °C

Sereno

Temp. 24 Ore

19 °C

29 °C

Ovest

13 Km/h

Dew point 15 °C

Umidità 72 %

Visibilità  10 Km

Il sole sorge alle ore 06:44

Il sole tramonta alle ore 20:02

Data e Ora Cielo e Fenomeni T °C DP °C Um. % Pres. hPa Vis. km Vento km/h
Oggi h: 22:00 sereno Sereno 20 15 72 1019 10 O 13
Oggi h: 21:30 sereno Sereno 20 15 72 1019 10 O 9.3
Oggi h: 21:00 sereno Sereno 21 15 68 1019 10 O/SO 9.3
Oggi h: 20:30 sereno Sereno 23 16 64 1018 10 O/NO 7.4
Oggi h: 20:00 poco_nuvoloso Poco Nuvoloso 25 16 57 1018 10 N 7.4
Oggi h: 19:30 poco_nuvoloso Poco Nuvoloso 27 13 42 1018 10 O/NO 18.5
Oggi h: 19:00 poco_nuvoloso Poco Nuvoloso 28 14 42 1018 10 NO 20.3
Oggi h: 18:30 poco_nuvoloso Poco Nuvoloso 28 13 39 1018 10 NO 20.3
Oggi h: 18:00 poco_nuvoloso Poco Nuvoloso 28 15 45 1018 10 O/NO 22.2
Oggi h: 17:30 poco_nuvoloso Poco Nuvoloso 28 14 42 1018 10 NO 22.2
Oggi h: 17:00 poco_nuvoloso Poco Nuvoloso 29 14 39 1018 10 O/NO 20.3
Oggi h: 16:30 poco_nuvoloso Poco Nuvoloso 28 13 39 1018 10 NO 24
Oggi h: 16:00 nuvoloso Nuvoloso 28 14 42 1018 10 O/NO 24
Oggi h: 15:30 nuvoloso Nuvoloso 29 15 42 1018 10 O/NO 25.9
Oggi h: 15:00 nuvoloso Nuvoloso 28 16 48 1018 10 NO 20.3
Oggi h: 14:30 nuvoloso Nuvoloso 27 17 54 1018 10 O/NO 13
Oggi h: 13:30 poco_nuvoloso Poco Nuvoloso 24 17 64 1019 10 N 5.5
Oggi h: 13:00 poco_nuvoloso Poco Nuvoloso 24 17 64 1019 10 N 5.5
Oggi h: 12:30 nuvoloso Nuvoloso 24 18 69 1019 10 N 1.8
Oggi h: 12:00 nuvoloso Nuvoloso 24 18 69 1019 10 N 5.5
Oggi h: 11:30 nuvoloso Nuvoloso 23 18 73 1019 10 N 5.5
Oggi h: 11:00 nuvoloso Nuvoloso 21 18 82 1019 10 N 3.7
Oggi h: 10:30 nuvoloso Nuvoloso 20 18 88 1019 10 N 3.7
Oggi h: 10:00 nuvoloso Nuvoloso 20 18 88 1019 10 E 9.3
Oggi h: 09:30 nuvoloso_piovaschi Pioggia 19 18 93 1019 10 E/NE 9.3
Oggi h: 09:00 nuvoloso_piovaschi Pioggia 19 17 88 1019 9 N/NO 9.3
Oggi h: 08:30 nuvoloso_piovaschi Pioggia 19 17 88 1019 8 NO 18.5
Oggi h: 08:00 molto_nuvoloso Pioggia nelle vicinanze 22 15 64 1019 10 NO 24
Oggi h: 07:30 nuvoloso Pioggia nelle vicinanze 21 15 68 1018 10 N 3.7
Oggi h: 07:00 poco_nuvoloso Poco Nuvoloso 20 14 68 1017 10 S/SE 7.4
Oggi h: 06:30 sereno Sereno 20 14 68 1017 10 S/SO 9.3
Oggi h: 06:00 poco_nuvoloso Poco Nuvoloso 20 14 68 1017 10 O/SO 14.8
Oggi h: 05:30 poco_nuvoloso Poco Nuvoloso 20 15 72 1016 10 O/SO 13
Oggi h: 05:00 poco_nuvoloso Poco Nuvoloso 20 15 72 1016 10 N/NO 16.7
Oggi h: 04:30 poco_nuvoloso Poco Nuvoloso 21 15 68 1016 10 NO 16.7
Oggi h: 04:00 sereno Sereno 19 14 72 1016 10 N 1.8
Oggi h: 03:30 sereno Sereno 19 15 77 1016 10 O 7.4
Oggi h: 03:00 sereno Sereno 24 15 57 1016 10 S/SE 9.3
Oggi h: 02:30 sereno Sereno 23 15 60 1016 10 SE 7.4
Oggi h: 02:00 nuvoloso Nuvoloso 24 15 57 1016 10 N 5.5
Oggi h: 01:30 sereno Sereno 24 14 53 1016 10 S/SE 7.4
Oggi h: 01:00 sereno Sereno 24 15 57 1016 10 S 9.3
Oggi h: 00:30 sereno Sereno 25 15 53 1016 10 S/SE 13
Oggi h: 00:00 sereno Sereno 25 15 53 1016 10 S/SE 13
Ieri h: 23:30 sereno Sereno 25 15 53 1016 10 S/SE 13
Ieri h: 23:00 sereno Sereno 25 15 53 1016 10 S/SE 14.8